Ketchikan International Airport
PAKT : now visible

Airfield :











YOU CAN JOIN US ON...

 
LOGIN :

Register | Disclaimer

   EN    FR    IT 

 









Legend :    VFR   Marginal VFR   IFR   Intensive IFR   Very Intensive IFR
Visi :
Ceiling :
>= 8 km
>= 3000ft
5 to 8 km
1000 to 3000 ft
1500m to 5 km
500 to 1000 ft
800 to 1500m
200 to 500 ft
< 800m
< 200 ft
Symbols :   Thunderstorms  Fog  Heavy snow  Heavy precipitations  Wind > 20 kt






- Airport Elevation : 89 ft
- IATA code : KTN


PAKT - Ketchikan International

CURRENT METAR :
  • 220153Z 17006KT 7SM -RA OVC020 04/03 A2945 RMK HARBOR WND 13015KT

EXPIRED METARs :
  • 220053Z 16008KT 10SM SCT014 BKN023 OVC040 04/03 A2943 RMK HARBOR WND 13015KT
  • 212353Z 16003KT 10SM -RA SCT015 OVC028 04/03 A2941 RMK HARBOR WND 11006KT

TAF PAKT
Valid from the 22 at 00:00 until the 23 at 00:00 UTC


212344Z 2200/2224 12003KT 6SM -RA OVC030
FM220300 15006KT 6SM -RA OVC025
FM221500 15012KT P6SM VCSH OVC015 AMD NOT SKED 2206/2215



MET'MAP, your aeronautical weather chart ! - Copyright ORBIFLY December 2007 - Disclaimer

ORBIFLY MET'MAP TEAM :

Programming & Development : Alexandra Zaïnal
Concept & original design : Baudouin d'Aumeries
Assistance for programming : Marc-Olivier Méhu
Technical & hardware support : Manuel Goepfert

Contact : metmap@orbifly.com




SOURCES & CREDITS :

   NOAA       Earth
Advisory